createdAt,value
2018-01-04T00:02:08.105Z,1.30
2018-01-04T00:04:35.584Z,1.90
2018-01-04T00:07:03.847Z,1.30
2018-01-04T00:09:32.099Z,1.90
2018-01-04T00:11:59.576Z,1.70
2018-01-04T00:14:27.823Z,1.20
2018-01-04T00:16:55.311Z,1.60
2018-01-04T00:19:23.556Z,1.63
2018-01-04T00:21:51.031Z,1.50
2018-01-04T00:24:18.540Z,1.80
2018-01-04T00:26:46.827Z,2.03
2018-01-04T00:29:14.303Z,3.27
2018-01-04T00:31:41.790Z,1.77
2018-01-04T00:34:10.046Z,1.57
2018-01-04T00:36:37.522Z,1.30
2018-01-04T00:39:05.090Z,1.60
2018-01-04T00:41:33.334Z,1.53
2018-01-04T00:44:00.844Z,2.07
2018-01-04T00:46:29.094Z,1.30
2018-01-04T00:48:56.558Z,1.43
2018-01-04T00:51:24.842Z,1.30
2018-01-04T00:53:53.086Z,1.80
2018-01-04T00:56:20.578Z,1.53
2018-01-04T00:58:48.854Z,1.73
2018-01-04T01:01:17.126Z,2.90
2018-01-04T01:03:45.366Z,2.20
2018-01-04T01:06:12.837Z,1.90
2018-01-04T01:08:40.325Z,2.67
2018-01-04T01:11:08.575Z,1.37
2018-01-04T01:13:36.907Z,2.13
2018-01-04T01:16:04.399Z,2.20
2018-01-04T01:18:32.028Z,1.73
2018-01-04T01:20:59.503Z,2.30
2018-01-04T01:23:26.981Z,1.63
2018-01-04T01:25:54.459Z,1.63
2018-01-04T01:28:22.845Z,1.60
2018-01-04T01:30:51.127Z,2.07
2018-01-04T01:33:19.367Z,1.90
2018-01-04T01:35:46.842Z,2.30
2018-01-04T01:38:14.326Z,2.30
2018-01-04T01:40:42.588Z,1.83
2018-01-04T01:43:10.858Z,1.50
2018-01-04T01:45:38.348Z,1.83
2018-01-04T01:48:05.818Z,1.53
2018-01-04T01:50:33.344Z,2.03
2018-01-04T01:53:01.593Z,2.20
2018-01-04T01:55:29.070Z,1.73
2018-01-04T01:57:56.538Z,1.43
2018-01-04T02:00:24.810Z,1.90
2018-01-04T02:02:53.089Z,2.10
2018-01-04T02:05:21.326Z,2.30
2018-01-04T02:07:48.801Z,1.63
2018-01-04T02:10:16.383Z,1.63
2018-01-04T02:12:44.655Z,1.90
2018-01-04T02:15:12.908Z,2.10
2018-01-04T02:17:40.391Z,2.17
2018-01-04T02:20:20.611Z,1.87
2018-01-04T02:25:54.217Z,1.27
2018-01-04T02:28:33.607Z,1.60
2018-01-04T02:31:13.927Z,2.50
2018-01-04T02:33:53.351Z,1.43
2018-01-04T02:36:32.746Z,1.63
2018-01-04T02:39:12.907Z,2.27
2018-01-04T02:41:52.951Z,1.60
2018-01-04T02:44:33.015Z,2.20
2018-01-04T02:47:01.282Z,2.30
2018-01-04T02:49:29.523Z,2.00
2018-01-04T02:51:56.990Z,1.70
2018-01-04T02:54:24.483Z,1.87
2018-01-04T02:56:52.726Z,1.73
2018-01-04T02:59:20.194Z,3.10
2018-01-04T03:01:47.678Z,2.63
2018-01-04T03:04:15.909Z,2.43
2018-01-04T03:06:43.384Z,2.73
2018-01-04T03:09:10.862Z,2.27
2018-01-04T03:11:39.153Z,2.33
2018-01-04T03:14:06.623Z,2.63
2018-01-04T03:16:34.101Z,1.70
2018-01-04T03:19:01.574Z,1.80
2018-01-04T03:21:29.041Z,1.70
2018-01-04T03:23:56.522Z,1.60
2018-01-04T03:26:30.531Z,1.17
2018-01-04T03:29:04.531Z,1.23
2018-01-04T03:31:37.783Z,1.93
2018-01-04T03:34:11.061Z,1.60
2018-01-04T03:36:44.294Z,1.50
2018-01-04T03:39:17.518Z,1.10
2018-01-04T03:44:50.778Z,1.50
2018-01-04T03:47:23.878Z,1.90
2018-01-04T03:49:56.986Z,1.60
2018-01-04T03:52:30.262Z,1.57
2018-01-04T03:55:03.420Z,2.03
2018-01-04T03:57:36.649Z,1.33
2018-01-04T04:03:01.564Z,1.53
2018-01-04T04:05:34.806Z,1.53
2018-01-04T04:08:08.781Z,1.47
2018-01-04T04:10:36.268Z,1.40
2018-01-04T04:13:04.258Z,1.40
2018-01-04T04:15:32.491Z,1.10
2018-01-04T04:17:59.975Z,1.70
2018-01-04T04:20:28.219Z,1.30
2018-01-04T04:22:55.685Z,1.47
2018-01-04T04:25:23.271Z,1.50
2018-01-04T04:27:51.499Z,1.30
2018-01-04T04:30:19.137Z,1.63
2018-01-04T04:32:46.626Z,1.33
2018-01-04T04:35:14.412Z,1.93
2018-01-04T04:37:41.855Z,1.37
2018-01-04T04:40:09.446Z,1.30
2018-01-04T04:42:37.694Z,1.10
2018-01-04T04:45:05.308Z,1.67
2018-01-04T04:47:32.840Z,1.33
2018-01-04T04:50:01.095Z,1.50
2018-01-04T04:52:28.682Z,1.97
2018-01-04T04:54:56.934Z,1.37
2018-01-04T04:57:24.422Z,1.40
2018-01-04T04:59:52.658Z,1.10
2018-01-04T05:02:20.149Z,2.40
2018-01-04T05:04:48.385Z,1.23
2018-01-04T05:07:15.872Z,1.30
2018-01-04T05:09:43.349Z,1.70
2018-01-04T05:12:11.590Z,1.07
2018-01-04T05:14:39.071Z,2.03
2018-01-04T05:17:07.393Z,2.33
2018-01-04T05:19:34.865Z,1.40
2018-01-04T05:22:02.590Z,1.70
2018-01-04T05:24:30.069Z,1.13
2018-01-04T05:26:57.592Z,1.67
2018-01-04T05:38:02.517Z,2.00
2018-01-04T05:40:29.995Z,1.80
2018-01-04T05:42:57.487Z,1.70
2018-01-04T05:45:25.737Z,1.67
2018-01-04T05:47:53.210Z,1.87
2018-01-04T05:50:20.695Z,2.13
2018-01-04T05:52:48.957Z,1.80
2018-01-04T05:55:16.418Z,1.60
2018-01-04T05:57:43.890Z,2.30
2018-01-04T06:00:11.458Z,2.03
2018-01-04T06:02:38.930Z,1.40
2018-01-04T06:05:06.403Z,1.43
2018-01-04T06:07:33.882Z,1.70
2018-01-04T06:10:01.388Z,1.30
2018-01-04T06:12:29.624Z,1.83
2018-01-04T06:14:57.102Z,1.17
2018-01-04T06:17:24.570Z,1.77
2018-01-04T06:19:52.810Z,1.90
2018-01-04T06:22:20.294Z,1.73
2018-01-04T06:24:48.532Z,2.10
2018-01-04T06:27:16.035Z,1.80
2018-01-04T06:29:44.287Z,2.07
2018-01-04T06:32:13.264Z,1.70
2018-01-04T06:34:40.738Z,2.10
2018-01-04T06:37:08.457Z,3.00
2018-01-04T06:39:35.927Z,1.80
2018-01-04T06:42:03.403Z,1.50
2018-01-04T06:44:30.933Z,1.47
2018-01-04T06:46:58.403Z,1.40
2018-01-04T06:49:25.908Z,3.20
2018-01-04T06:51:54.198Z,2.13
2018-01-04T06:54:22.475Z,1.47
2018-01-04T06:56:50.712Z,2.00
2018-01-04T06:59:18.204Z,1.30
2018-01-04T07:01:46.438Z,1.33
2018-01-04T07:04:13.938Z,1.40
2018-01-04T07:06:42.188Z,1.47
2018-01-04T07:09:09.910Z,3.03
2018-01-04T07:11:37.388Z,0.90
2018-01-04T07:14:04.872Z,1.97
2018-01-04T07:16:32.350Z,1.27
2018-01-04T07:19:00.627Z,2.23
2018-01-04T07:21:28.877Z,1.40
2018-01-04T07:23:56.409Z,1.70
2018-01-04T07:26:24.638Z,1.13
2018-01-04T07:28:52.888Z,1.43
2018-01-04T07:31:20.368Z,1.40
2018-01-04T07:33:48.605Z,1.50
2018-01-04T07:36:16.082Z,1.40
2018-01-04T07:38:43.583Z,1.87
2018-01-04T07:41:11.151Z,1.50
2018-01-04T07:43:38.683Z,1.87
2018-01-04T07:46:06.928Z,1.40
2018-01-04T07:48:34.417Z,1.77
2018-01-04T07:51:02.669Z,1.40
2018-01-04T07:53:30.151Z,1.20
2018-01-04T07:55:58.399Z,1.13
2018-01-04T07:58:25.987Z,1.37
2018-01-04T08:00:54.272Z,1.03
2018-01-04T08:03:22.519Z,1.67
2018-01-04T08:05:51.540Z,1.23
2018-01-04T08:08:19.770Z,1.40
2018-01-04T08:10:47.244Z,1.60
2018-01-04T08:13:14.722Z,1.23
2018-01-04T08:15:42.286Z,1.40
2018-01-04T08:18:10.530Z,1.23
2018-01-04T08:20:38.118Z,1.40
2018-01-04T08:23:06.396Z,0.80
2018-01-04T08:25:34.630Z,1.27
2018-01-04T08:28:02.123Z,1.37
2018-01-04T08:30:29.600Z,0.83
2018-01-04T08:32:57.839Z,1.73
2018-01-04T08:35:25.314Z,1.00
2018-01-04T08:37:53.577Z,1.63
2018-01-04T08:40:21.049Z,1.00
2018-01-04T08:42:48.576Z,1.33
2018-01-04T08:45:16.048Z,1.03
2018-01-04T08:47:43.523Z,1.37
2018-01-04T08:50:11.009Z,1.33
2018-01-04T08:52:39.255Z,0.60
2018-01-04T08:55:06.723Z,0.97
2018-01-04T08:57:34.211Z,3.60
2018-01-04T09:00:01.693Z,0.70
2018-01-04T09:02:29.203Z,1.13
2018-01-04T09:04:57.471Z,2.67
2018-01-04T09:07:24.938Z,7.17
2018-01-04T09:09:53.178Z,1.20
2018-01-04T09:12:20.775Z,2.70
2018-01-04T09:14:49.002Z,1.70
2018-01-04T09:17:16.470Z,1.10
2018-01-04T09:19:43.986Z,4.73
2018-01-04T09:22:11.466Z,16.40
2018-01-04T09:24:38.958Z,1.30
2018-01-04T09:27:06.544Z,2.67
2018-01-04T09:29:34.010Z,2.20
2018-01-04T09:32:02.274Z,3.10
2018-01-04T09:34:30.552Z,0.87
2018-01-04T09:36:58.836Z,1.60
2018-01-04T09:39:27.072Z,3.00
2018-01-04T09:41:54.568Z,2.40
2018-01-04T09:44:22.813Z,1.13
2018-01-04T09:46:50.287Z,1.00
2018-01-04T09:49:17.771Z,1.23
2018-01-04T09:51:46.001Z,1.30
2018-01-04T09:54:13.469Z,1.50
2018-01-04T09:56:40.952Z,1.30
2018-01-04T09:59:09.195Z,4.80
2018-01-04T10:01:36.671Z,3.33
2018-01-04T10:04:04.163Z,2.27
2018-01-04T10:06:31.639Z,2.23
2018-01-04T10:08:59.112Z,0.90
2018-01-04T10:11:26.662Z,0.60
2018-01-04T10:13:54.139Z,0.77
2018-01-04T10:16:21.616Z,1.90
2018-01-04T10:18:49.195Z,0.70
2018-01-04T10:21:17.510Z,5.93
2018-01-04T10:23:44.982Z,2.10
2018-01-04T10:26:12.478Z,7.43
2018-01-04T10:28:40.710Z,2.30
2018-01-04T10:31:08.192Z,0.90
2018-01-04T10:33:35.670Z,7.73
2018-01-04T10:36:03.239Z,2.07
2018-01-04T10:38:31.483Z,1.73
2018-01-04T10:40:59.176Z,3.10
2018-01-04T10:43:27.492Z,1.30
2018-01-04T10:45:55.016Z,1.57
2018-01-04T10:48:23.259Z,0.70
2018-01-04T10:50:50.729Z,0.80
2018-01-04T10:53:18.209Z,0.90
2018-01-04T10:55:46.465Z,0.57
2018-01-04T10:58:13.931Z,2.00
2018-01-04T11:00:41.406Z,4.97
2018-01-04T11:03:09.663Z,2.63
2018-01-04T11:05:37.131Z,1.57
2018-01-04T11:08:05.403Z,4.70
2018-01-04T11:10:32.891Z,0.70
2018-01-04T11:13:00.423Z,1.37
2018-01-04T11:15:28.654Z,0.77
2018-01-04T11:17:56.155Z,0.90
2018-01-04T11:20:24.395Z,0.70
2018-01-04T11:22:51.884Z,0.80
2018-01-04T11:25:19.414Z,0.70
2018-01-04T11:27:46.902Z,0.70
2018-01-04T11:30:14.370Z,0.70
2018-01-04T11:32:42.646Z,0.67
2018-01-04T11:35:10.882Z,0.60
2018-01-04T11:37:38.375Z,1.10
2018-01-04T11:40:06.624Z,1.20
2018-01-04T11:42:34.103Z,3.40
2018-01-04T11:45:01.604Z,1.10
2018-01-04T11:47:29.100Z,1.47
2018-01-04T11:49:56.573Z,2.30
2018-01-04T11:52:24.150Z,1.27
2018-01-04T11:54:52.429Z,1.90
2018-01-04T11:57:20.683Z,1.17
2018-01-04T11:59:48.237Z,2.50
2018-01-04T12:02:15.746Z,4.97
2018-01-04T12:04:43.245Z,3.00
2018-01-04T12:07:11.525Z,2.60
2018-01-04T12:09:39.027Z,4.80
2018-01-04T12:12:07.279Z,3.03
2018-01-04T12:14:34.759Z,3.87
2018-01-04T12:17:03.071Z,2.20
2018-01-04T12:19:30.679Z,3.03
2018-01-04T12:21:58.163Z,6.10
2018-01-04T12:24:25.698Z,4.30
2018-01-04T12:26:53.956Z,5.80
2018-01-04T12:29:21.548Z,1.70
2018-01-04T12:31:49.802Z,6.30
2018-01-04T12:34:17.273Z,3.77
2018-01-04T12:36:45.524Z,2.27
2018-01-04T12:39:13.112Z,3.10
2018-01-04T12:41:41.385Z,3.20
2018-01-04T12:44:09.635Z,4.00
2018-01-04T12:46:37.117Z,3.90
2018-01-04T12:49:05.365Z,4.30
2018-01-04T12:51:32.835Z,5.03
2018-01-04T12:54:01.109Z,4.73
2018-01-04T12:56:28.575Z,4.57
2018-01-04T12:58:57.608Z,2.80
2018-01-04T13:01:25.142Z,7.03
2018-01-04T13:03:53.410Z,4.20
2018-01-04T13:06:20.974Z,8.20
2018-01-04T13:08:48.504Z,4.67
2018-01-04T13:11:15.974Z,4.27
2018-01-04T13:13:44.956Z,5.13
2018-01-04T13:16:12.654Z,3.50
2018-01-04T13:18:40.936Z,3.60
2018-01-04T13:21:09.210Z,2.83
2018-01-04T13:23:37.464Z,8.50
2018-01-04T13:26:05.707Z,2.80
2018-01-04T13:28:33.175Z,3.37
2018-01-04T13:31:00.657Z,3.50
2018-01-04T13:33:28.233Z,2.90
2018-01-04T13:35:56.609Z,3.10
2018-01-04T13:38:24.868Z,2.87
2018-01-04T13:40:52.347Z,3.13
2018-01-04T13:43:20.599Z,4.00
2018-01-04T13:45:48.290Z,3.37
2018-01-04T13:48:16.562Z,4.47
2018-01-04T13:50:44.803Z,6.20
2018-01-04T13:53:12.295Z,4.47
2018-01-04T13:55:41.084Z,10.65
2018-01-04T13:58:09.330Z,7.50
2018-01-04T14:00:36.815Z,9.43
2018-01-04T14:03:05.100Z,6.53
2018-01-04T14:05:33.334Z,7.80
2018-01-04T14:08:00.830Z,29.33
2018-01-04T14:10:29.087Z,6.40
2018-01-04T14:12:56.574Z,3.63
2018-01-04T14:15:24.822Z,5.60
2018-01-04T14:17:52.294Z,3.37
2018-01-04T14:20:20.580Z,2.77
2018-01-04T14:22:48.832Z,3.93
2018-01-04T14:25:16.410Z,4.40
2018-01-04T14:27:44.652Z,7.00
2018-01-04T14:30:12.133Z,9.20
2018-01-04T14:32:39.709Z,22.47
2018-01-04T14:35:07.945Z,10.80
2018-01-04T14:37:35.455Z,10.37
2018-01-04T14:40:02.943Z,13.10
2018-01-04T14:42:30.453Z,10.30
2018-01-04T14:44:58.715Z,9.20
2018-01-04T14:47:26.296Z,7.17
2018-01-04T14:49:54.535Z,7.67
2018-01-04T14:52:22.021Z,8.53
2018-01-04T14:54:49.507Z,7.80
2018-01-04T14:57:16.987Z,6.83
2018-01-04T14:59:44.479Z,8.10
2018-01-04T15:02:11.953Z,7.27
2018-01-04T15:04:39.432Z,8.10
2018-01-04T15:07:07.695Z,6.60
2018-01-04T15:09:35.955Z,7.17
2018-01-04T15:12:03.435Z,10.10
2018-01-04T15:14:31.676Z,8.30
2018-01-04T15:16:59.155Z,9.77
2018-01-04T15:19:26.631Z,10.00
2018-01-04T15:21:54.882Z,9.00
2018-01-04T15:24:22.450Z,8.80
2018-01-04T15:26:50.709Z,7.50
2018-01-04T15:29:18.186Z,9.33
2018-01-04T15:31:46.468Z,9.40
2018-01-04T15:34:14.706Z,8.93
2018-01-04T15:36:42.200Z,8.90
2018-01-04T15:39:10.438Z,9.60
2018-01-04T15:41:37.926Z,9.47
2018-01-04T15:44:06.186Z,8.20
2018-01-04T15:46:33.771Z,7.67
2018-01-04T15:49:02.576Z,7.37
2018-01-04T15:51:30.068Z,7.90
2018-01-04T15:53:57.573Z,9.97
2018-01-04T15:56:25.051Z,9.80
2018-01-04T15:58:53.324Z,16.33
2018-01-04T16:01:21.571Z,11.57
2018-01-04T16:03:49.163Z,12.40
2018-01-04T16:06:17.434Z,12.70
2018-01-04T16:08:45.687Z,12.50
2018-01-04T16:11:13.179Z,12.43
2018-01-04T16:13:40.667Z,12.90
2018-01-04T16:16:08.199Z,13.93
2018-01-04T16:18:35.735Z,12.70
2018-01-04T16:21:03.999Z,10.87
2018-01-04T16:23:31.486Z,10.70
2018-01-04T16:25:59.747Z,12.13
2018-01-04T16:28:27.998Z,9.80
2018-01-04T16:30:56.246Z,12.10
2018-01-04T16:33:23.740Z,16.10
2018-01-04T16:35:51.250Z,11.47
2018-01-04T16:38:18.722Z,10.80
2018-01-04T16:40:46.332Z,13.70
2018-01-04T16:45:50.996Z,11.23
2018-01-04T16:48:19.248Z,13.30
2018-01-04T16:50:48.229Z,12.53
2018-01-04T16:53:15.814Z,10.70
2018-01-04T16:55:44.054Z,11.10
2018-01-04T16:58:11.592Z,12.23
2018-01-04T17:00:39.088Z,11.80
2018-01-04T17:03:06.922Z,12.60
2018-01-04T17:05:34.409Z,13.00
2018-01-04T17:08:01.911Z,14.33
2018-01-04T17:10:29.383Z,13.93
2018-01-04T17:12:56.903Z,18.20
2018-01-04T17:15:25.171Z,16.27
2018-01-04T17:17:52.651Z,17.87
2018-01-04T17:20:20.965Z,11.37
2018-01-04T17:22:48.459Z,10.27
2018-01-04T17:25:15.978Z,10.17
2018-01-04T17:27:43.459Z,8.60
2018-01-04T17:30:10.946Z,9.00
2018-01-04T17:32:39.189Z,7.60
2018-01-04T17:35:06.654Z,7.90
2018-01-04T17:37:34.150Z,12.43
2018-01-04T17:40:02.390Z,10.17
2018-01-04T17:42:29.858Z,9.33
2018-01-04T17:44:57.354Z,10.73
2018-01-04T17:47:24.906Z,13.20
2018-01-04T17:49:53.177Z,12.30
2018-01-04T17:52:21.442Z,12.00
2018-01-04T17:54:49.700Z,9.63
2018-01-04T17:59:38.590Z,11.30
2018-01-04T18:02:06.838Z,12.50
2018-01-04T18:04:34.327Z,11.33
2018-01-04T18:07:02.581Z,11.23
2018-01-04T18:09:30.821Z,10.67
2018-01-04T18:11:58.303Z,9.30
2018-01-04T18:14:25.787Z,9.83
2018-01-04T18:16:54.038Z,9.87
2018-01-04T18:19:21.505Z,9.80
2018-01-04T18:21:48.999Z,11.47
2018-01-04T18:24:17.251Z,13.00
2018-01-04T18:26:44.827Z,13.47
2018-01-04T18:29:13.079Z,12.67
2018-01-04T18:31:40.579Z,12.40
2018-01-04T18:34:08.254Z,13.43
2018-01-04T18:36:35.746Z,11.67
2018-01-04T18:39:03.229Z,13.00
2018-01-04T18:41:31.536Z,12.17
2018-01-04T18:43:59.786Z,9.70
2018-01-04T18:46:28.954Z,11.00
2018-01-04T18:48:56.448Z,10.90
2018-01-04T18:51:24.710Z,10.97
2018-01-04T18:53:52.190Z,10.77
2018-01-04T18:56:20.509Z,10.53
2018-01-04T18:58:48.002Z,9.90
2018-01-04T19:01:15.509Z,15.10
2018-01-04T19:03:43.035Z,9.27
2018-01-04T19:06:11.298Z,9.10
2018-01-04T19:08:38.826Z,10.00
2018-01-04T19:11:06.363Z,13.73
2018-01-04T19:13:33.915Z,9.87
2018-01-04T19:16:01.393Z,10.27
2018-01-04T19:18:28.879Z,7.97
2018-01-04T19:20:56.365Z,8.17
2018-01-04T19:23:24.639Z,8.87
2018-01-04T19:25:52.953Z,9.90
2018-01-04T19:28:20.447Z,9.60
2018-01-04T19:30:47.924Z,8.70
2018-01-04T19:33:15.417Z,8.27
2018-01-04T19:35:42.921Z,9.20
2018-01-04T19:38:10.399Z,8.67
2018-01-04T19:40:37.874Z,9.50
2018-01-04T19:43:06.138Z,9.33
2018-01-04T19:45:33.622Z,8.50
2018-01-04T19:48:01.102Z,7.87
2018-01-04T19:50:28.602Z,33.53
2018-01-04T19:52:56.178Z,7.73
2018-01-04T19:55:24.419Z,8.43
2018-01-04T19:57:51.909Z,7.63
2018-01-04T20:00:20.159Z,6.97
2018-01-04T20:02:47.659Z,7.87
2018-01-04T20:05:15.915Z,8.37
2018-01-04T20:07:44.177Z,8.53
2018-01-04T20:10:11.662Z,8.00
2018-01-04T20:12:39.947Z,8.23
2018-01-04T20:15:08.489Z,6.50
2018-01-04T20:17:35.983Z,7.00
2018-01-04T20:20:04.255Z,7.83
2018-01-04T20:22:32.519Z,9.10
2018-01-04T20:24:59.994Z,8.20
2018-01-04T20:27:28.289Z,8.03
2018-01-04T20:29:55.861Z,7.23
2018-01-04T20:32:23.384Z,6.97
2018-01-04T20:34:51.648Z,6.97
2018-01-04T20:37:19.946Z,5.83
2018-01-04T20:39:47.508Z,5.10
2018-01-04T20:42:15.777Z,5.50
2018-01-04T20:44:44.969Z,8.90
2018-01-04T20:47:13.212Z,5.90
2018-01-04T20:49:40.750Z,4.70
2018-01-04T20:52:08.264Z,4.60
2018-01-04T20:54:36.510Z,4.33
2018-01-04T20:57:04.034Z,4.60
2018-01-04T20:59:31.503Z,3.90
2018-01-04T21:01:59.601Z,4.40
2018-01-04T21:04:27.091Z,5.57
2018-01-04T21:06:54.652Z,6.07
2018-01-04T21:09:23.699Z,5.50
2018-01-04T21:11:51.195Z,4.60
2018-01-04T21:14:18.678Z,5.30
2018-01-04T21:16:46.164Z,5.60
2018-01-04T21:19:13.655Z,6.70
2018-01-04T21:21:41.142Z,5.23
2018-01-04T21:24:09.387Z,5.30
2018-01-04T21:26:36.900Z,10.50
2018-01-04T21:29:04.444Z,3.93
2018-01-04T21:31:31.928Z,3.80
2018-01-04T21:33:59.419Z,3.23
2018-01-04T21:36:27.675Z,9.93
2018-01-04T21:38:55.161Z,4.87
2018-01-04T21:41:23.206Z,3.03
2018-01-04T21:43:50.682Z,15.73
2018-01-04T21:46:18.189Z,6.27
2018-01-04T21:48:45.680Z,4.30
2018-01-04T21:51:13.151Z,5.20
2018-01-04T21:53:40.678Z,4.50
2018-01-04T21:56:08.930Z,4.50
2018-01-04T21:58:37.189Z,4.70
2018-01-04T22:01:04.759Z,3.70
2018-01-04T22:03:33.001Z,2.67
2018-01-04T22:06:00.491Z,3.90
2018-01-04T22:08:28.727Z,3.57
2018-01-04T22:10:56.215Z,3.13
2018-01-04T22:13:24.494Z,2.50
2018-01-04T22:15:51.973Z,2.70
2018-01-04T22:18:19.470Z,3.10
2018-01-04T22:20:46.938Z,3.43
2018-01-04T22:23:14.411Z,3.27
2018-01-04T22:25:42.038Z,3.60
2018-01-04T22:28:09.547Z,3.23
2018-01-04T22:30:37.786Z,2.40
2018-01-04T22:33:05.700Z,4.20
2018-01-04T22:35:33.936Z,5.00
2018-01-04T22:38:01.423Z,5.27
2018-01-04T22:40:29.675Z,5.03
2018-01-04T22:42:57.155Z,4.97
2018-01-04T22:45:24.622Z,4.43
2018-01-04T22:47:52.870Z,4.20
2018-01-04T22:50:20.342Z,3.20
2018-01-04T22:52:47.826Z,4.10
2018-01-04T22:55:16.078Z,50.10
2018-01-04T22:57:43.560Z,22.20
2018-01-04T23:00:11.855Z,5.47
2018-01-04T23:02:39.377Z,4.13
2018-01-04T23:05:06.850Z,3.30
2018-01-04T23:07:35.085Z,3.47
2018-01-04T23:10:02.679Z,4.20
2018-01-04T23:12:30.940Z,4.60
2018-01-04T23:14:58.511Z,3.67
2018-01-04T23:17:26.775Z,3.10
2018-01-04T23:19:54.390Z,3.23
2018-01-04T23:22:21.851Z,2.70
2018-01-04T23:24:49.339Z,3.13
2018-01-04T23:27:16.805Z,2.17
2018-01-04T23:29:45.053Z,3.00
2018-01-04T23:32:12.539Z,2.57
2018-01-04T23:34:40.013Z,3.20
2018-01-04T23:37:08.255Z,3.13
2018-01-04T23:39:35.749Z,3.03
2018-01-04T23:42:03.989Z,3.43
2018-01-04T23:44:31.467Z,3.47
2018-01-04T23:46:58.950Z,2.77
2018-01-04T23:49:27.226Z,2.90
2018-01-04T23:51:55.462Z,2.60
2018-01-04T23:54:22.938Z,3.53
2018-01-04T23:56:50.419Z,2.30
2018-01-04T23:59:18.654Z,2.43
